createdAt,value
2019-06-08T00:00:04.794Z,13.40
2019-06-08T00:01:04.797Z,13.20
2019-06-08T00:02:04.788Z,13.50
2019-06-08T00:03:04.799Z,14.50
2019-06-08T00:04:04.766Z,14.10
2019-06-08T00:05:04.819Z,12.10
2019-06-08T00:06:04.735Z,13.20
2019-06-08T00:07:04.736Z,14.10
2019-06-08T00:08:04.749Z,15.60
2019-06-08T00:09:04.703Z,12.10
2019-06-08T00:10:04.703Z,13.00
2019-06-08T00:11:04.699Z,12.60
2019-06-08T00:12:04.665Z,13.20
2019-06-08T00:13:04.693Z,13.20
2019-06-08T00:14:04.663Z,15.50
2019-06-08T00:15:04.650Z,15.80
2019-06-08T00:16:04.635Z,12.90
2019-06-08T00:17:04.619Z,14.00
2019-06-08T00:18:04.634Z,14.40
2019-06-08T00:19:04.586Z,15.90
2019-06-08T00:20:04.582Z,14.80
2019-06-08T00:21:04.599Z,13.70
2019-06-08T00:22:04.574Z,16.30
2019-06-08T00:23:04.581Z,14.10
2019-06-08T00:24:04.552Z,13.60
2019-06-08T00:25:04.542Z,14.60
2019-06-08T00:26:04.518Z,14.20
2019-06-08T00:27:04.528Z,15.00
2019-06-08T00:28:04.536Z,13.40
2019-06-08T00:29:04.516Z,13.50
2019-06-08T00:30:04.467Z,14.90
2019-06-08T00:31:04.464Z,14.60
2019-06-08T00:32:04.484Z,13.40
2019-06-08T00:33:04.490Z,14.80
2019-06-08T00:34:04.431Z,15.10
2019-06-08T00:35:04.418Z,14.50
2019-06-08T00:36:04.406Z,14.90
2019-06-08T00:37:04.388Z,15.80
2019-06-08T00:38:04.422Z,13.40
2019-06-08T00:39:04.366Z,14.30
2019-06-08T00:40:04.360Z,15.20
2019-06-08T00:41:04.356Z,13.90
2019-06-08T00:42:04.332Z,14.80
2019-06-08T00:43:04.348Z,18.30
2019-06-08T00:44:04.338Z,15.00
2019-06-08T00:45:04.318Z,14.60
2019-06-08T00:46:04.288Z,15.10
2019-06-08T00:47:04.276Z,15.80
2019-06-08T00:48:04.300Z,16.00
2019-06-08T00:49:04.258Z,15.10
2019-06-08T00:50:04.250Z,13.50
2019-06-08T00:51:04.244Z,15.80
2019-06-08T00:52:04.229Z,17.60
2019-06-08T00:53:04.230Z,15.40
2019-06-08T00:54:04.198Z,17.40
2019-06-08T00:55:04.189Z,13.80
2019-06-08T00:56:04.184Z,16.00
2019-06-08T00:57:04.170Z,14.20
2019-06-08T00:58:04.209Z,17.50
2019-06-08T00:59:04.147Z,16.40
2019-06-08T01:00:10.173Z,15.00
2019-06-08T01:01:05.121Z,15.30
2019-06-08T01:02:04.106Z,16.00
2019-06-08T01:03:04.100Z,17.80
2019-06-08T01:04:04.105Z,16.00
2019-06-08T01:05:04.076Z,15.80
2019-06-08T01:06:04.079Z,15.40
2019-06-08T01:07:04.080Z,16.40
2019-06-08T01:08:04.249Z,16.70
2019-06-08T01:09:04.051Z,15.90
2019-06-08T01:10:04.043Z,15.60
2019-06-08T01:11:04.012Z,16.60
2019-06-08T01:12:04.005Z,15.30
2019-06-08T01:13:04.006Z,16.20
2019-06-08T01:14:04.001Z,17.30
2019-06-08T01:15:03.988Z,16.20
2019-06-08T01:16:03.961Z,17.30
2019-06-08T01:17:03.961Z,15.70
2019-06-08T01:18:04.347Z,14.90
2019-06-08T01:19:03.943Z,16.80
2019-06-08T01:20:03.916Z,15.40
2019-06-08T01:21:03.897Z,15.80
2019-06-08T01:22:03.921Z,16.50
2019-06-08T01:23:03.882Z,16.20
2019-06-08T01:24:03.880Z,16.30
2019-06-08T01:25:03.867Z,17.20
2019-06-08T01:26:03.843Z,15.80
2019-06-08T01:27:03.827Z,17.40
2019-06-08T01:28:03.830Z,17.10
2019-06-08T01:29:03.840Z,17.80
2019-06-08T01:30:03.806Z,16.20
2019-06-08T01:31:03.785Z,16.20
2019-06-08T01:32:03.776Z,18.30
2019-06-08T01:33:03.800Z,16.40
2019-06-08T01:34:03.776Z,19.00
2019-06-08T01:35:03.825Z,17.80
2019-06-08T01:36:03.739Z,17.40
2019-06-08T01:37:03.724Z,17.00
2019-06-08T01:38:03.706Z,17.30
2019-06-08T01:39:03.702Z,17.50
2019-06-08T01:40:03.711Z,15.10
2019-06-08T01:41:03.675Z,17.40
2019-06-08T01:42:03.675Z,17.50
2019-06-08T01:43:03.653Z,17.70
2019-06-08T01:44:03.638Z,16.90
2019-06-08T01:45:03.825Z,18.20
2019-06-08T01:46:03.618Z,17.40
2019-06-08T01:47:03.614Z,18.00
2019-06-08T01:48:18.737Z,16.20
2019-06-08T01:49:04.585Z,18.00
2019-06-08T01:50:03.592Z,17.80
2019-06-08T01:51:03.664Z,19.60
2019-06-08T01:52:03.552Z,17.00
2019-06-08T01:53:04.422Z,19.80
2019-06-08T01:54:03.535Z,18.90
2019-06-08T01:55:03.543Z,18.90
2019-06-08T01:56:03.511Z,21.50
2019-06-08T01:57:03.496Z,20.10
2019-06-08T01:58:03.476Z,17.60
2019-06-08T01:59:03.476Z,18.80
2019-06-08T02:00:28.736Z,15.90
2019-06-08T02:01:04.471Z,19.30
2019-06-08T02:02:03.468Z,16.50
2019-06-08T02:03:03.443Z,16.00
2019-06-08T02:04:03.420Z,15.40
2019-06-08T02:05:03.406Z,14.20
2019-06-08T02:06:03.449Z,13.50
2019-06-08T02:07:03.390Z,13.70
2019-06-08T02:08:03.366Z,12.90
2019-06-08T02:09:03.370Z,10.30
2019-06-08T02:10:03.352Z,7.50
2019-06-08T02:11:03.355Z,10.70
2019-06-08T02:12:03.328Z,7.90
2019-06-08T02:13:03.318Z,6.30
2019-06-08T02:14:03.307Z,3.70
2019-06-08T02:15:03.302Z,6.60
2019-06-08T02:16:03.309Z,4.40
2019-06-08T02:17:03.270Z,4.40
2019-06-08T02:18:03.254Z,3.10
2019-06-08T02:19:03.365Z,2.90
2019-06-08T02:20:03.241Z,3.50
2019-06-08T02:21:03.253Z,3.90
2019-06-08T02:22:03.245Z,4.90
2019-06-08T02:23:03.220Z,3.80
2019-06-08T02:24:03.198Z,3.60
2019-06-08T02:25:03.176Z,3.00
2019-06-08T02:26:03.195Z,2.00
2019-06-08T02:27:03.160Z,2.70
2019-06-08T02:28:03.286Z,1.80
2019-06-08T02:29:03.137Z,2.50
2019-06-08T02:30:03.125Z,2.40
2019-06-08T02:31:03.131Z,2.80
2019-06-08T02:32:03.098Z,2.60
2019-06-08T02:33:03.094Z,2.20
2019-06-08T02:34:03.084Z,1.90
2019-06-08T02:35:03.091Z,2.40
2019-06-08T02:36:03.086Z,2.30
2019-06-08T02:37:03.056Z,2.10
2019-06-08T02:38:03.023Z,3.00
2019-06-08T02:39:03.024Z,1.90
2019-06-08T02:40:03.012Z,3.30
2019-06-08T02:41:03.049Z,3.70
2019-06-08T02:42:02.986Z,3.60
2019-06-08T02:43:02.975Z,4.20
2019-06-08T02:44:02.971Z,2.90
2019-06-08T02:45:02.964Z,2.40
2019-06-08T02:46:02.993Z,3.90
2019-06-08T02:47:02.937Z,2.50
2019-06-08T02:48:02.935Z,2.10
2019-06-08T02:49:04.725Z,2.40
2019-06-08T02:50:02.907Z,3.40
2019-06-08T02:51:02.909Z,3.30
2019-06-08T02:52:02.894Z,2.40
2019-06-08T02:53:02.865Z,2.00
2019-06-08T02:54:02.866Z,4.50
2019-06-08T02:55:02.861Z,5.90
2019-06-08T02:56:02.834Z,1.80
2019-06-08T02:57:02.854Z,2.30
2019-06-08T02:58:02.812Z,3.10
2019-06-08T02:59:02.801Z,3.10
2019-06-08T03:00:02.793Z,2.40
2019-06-08T03:01:02.777Z,2.10
2019-06-08T03:02:02.794Z,2.70
2019-06-08T03:03:02.757Z,2.30
2019-06-08T03:04:02.746Z,2.50
2019-06-08T03:05:02.736Z,3.20
2019-06-08T03:06:02.723Z,2.20
2019-06-08T03:07:02.729Z,2.30
2019-06-08T03:08:02.697Z,4.60
2019-06-08T03:09:02.679Z,2.10
2019-06-08T03:10:02.679Z,3.50
2019-06-08T03:11:02.673Z,2.90
2019-06-08T03:12:02.691Z,3.00
2019-06-08T03:13:02.647Z,2.90
2019-06-08T03:14:02.629Z,2.20
2019-06-08T03:15:02.630Z,2.20
2019-06-08T03:16:02.618Z,3.70
2019-06-08T03:17:02.633Z,3.20
2019-06-08T03:18:02.593Z,2.30
2019-06-08T03:19:20.173Z,3.00
2019-06-08T03:20:03.564Z,4.20
2019-06-08T03:21:02.589Z,4.20
2019-06-08T03:22:02.566Z,3.30
2019-06-08T03:23:02.531Z,2.60
2019-06-08T03:24:02.509Z,3.20
2019-06-08T03:25:02.520Z,2.60
2019-06-08T03:26:02.504Z,2.90
2019-06-08T03:27:02.503Z,2.20
2019-06-08T03:28:02.466Z,2.10
2019-06-08T03:29:02.461Z,2.70
2019-06-08T03:30:14.971Z,3.80
2019-06-08T03:31:03.471Z,3.50
2019-06-08T03:32:02.456Z,2.30
2019-06-08T03:33:02.413Z,3.40
2019-06-08T03:34:02.411Z,3.00
2019-06-08T03:35:02.397Z,3.70
2019-06-08T03:36:02.407Z,2.90
2019-06-08T03:37:02.434Z,2.00
2019-06-08T03:38:02.367Z,2.50
2019-06-08T03:39:02.349Z,1.90
2019-06-08T03:40:02.340Z,2.50
2019-06-08T03:41:02.325Z,3.20
2019-06-08T03:42:02.354Z,1.70
2019-06-08T03:43:02.335Z,3.20
2019-06-08T03:44:02.293Z,1.60
2019-06-08T03:45:02.288Z,2.00
2019-06-08T03:46:02.279Z,2.60
2019-06-08T03:47:02.287Z,2.70
2019-06-08T03:48:02.269Z,3.50
2019-06-08T03:49:02.250Z,2.40
2019-06-08T03:50:02.242Z,2.30
2019-06-08T03:51:02.218Z,3.40
2019-06-08T03:52:02.199Z,2.40
2019-06-08T03:53:02.216Z,2.30
2019-06-08T03:54:02.187Z,2.30
2019-06-08T03:55:02.189Z,2.30
2019-06-08T03:56:02.163Z,2.60
2019-06-08T03:57:02.161Z,2.50
2019-06-08T03:58:02.159Z,2.60
2019-06-08T03:59:02.131Z,2.70
2019-06-08T04:00:02.144Z,2.40
2019-06-08T04:01:02.104Z,3.50
2019-06-08T04:02:02.925Z,2.60
2019-06-08T04:03:02.100Z,2.50
2019-06-08T04:04:02.068Z,3.50
2019-06-08T04:05:02.056Z,2.60
2019-06-08T04:06:02.054Z,2.30
2019-06-08T04:07:02.065Z,2.60
2019-06-08T04:08:02.049Z,1.70
2019-06-08T04:09:02.029Z,2.20
2019-06-08T04:10:02.009Z,2.50
2019-06-08T04:11:01.995Z,1.70
2019-06-08T04:12:01.975Z,2.60
2019-06-08T04:13:01.985Z,3.40
2019-06-08T04:14:01.965Z,2.50
2019-06-08T04:15:01.958Z,3.60
2019-06-08T04:16:01.950Z,2.70
2019-06-08T04:17:01.921Z,1.90
2019-06-08T04:18:01.929Z,2.10
2019-06-08T04:19:01.893Z,1.70
2019-06-08T04:20:10.472Z,3.30
2019-06-08T04:21:02.875Z,3.70
2019-06-08T04:22:01.863Z,2.40
2019-06-08T04:23:01.864Z,2.00
2019-06-08T04:24:01.838Z,3.80
2019-06-08T04:25:01.845Z,2.50
2019-06-08T04:26:01.823Z,2.30
2019-06-08T04:27:01.824Z,2.30
2019-06-08T04:28:01.825Z,1.50
2019-06-08T04:29:01.795Z,2.10
2019-06-08T04:30:01.784Z,1.60
2019-06-08T04:31:01.780Z,2.30
2019-06-08T04:32:01.763Z,3.40
2019-06-08T04:33:01.772Z,2.00
2019-06-08T04:34:01.732Z,1.50
2019-06-08T04:35:01.799Z,1.20
2019-06-08T04:36:01.711Z,2.30
2019-06-08T04:37:01.724Z,1.90
2019-06-08T04:38:01.716Z,3.40
2019-06-08T04:39:01.681Z,3.10
2019-06-08T04:40:01.679Z,1.60
2019-06-08T04:41:01.665Z,1.70
2019-06-08T04:42:01.644Z,1.50
2019-06-08T04:43:01.656Z,3.70
2019-06-08T04:44:01.627Z,2.40
2019-06-08T04:45:01.618Z,1.80
2019-06-08T04:46:01.603Z,1.30
2019-06-08T04:47:01.590Z,1.40
2019-06-08T04:48:01.644Z,3.60
2019-06-08T04:49:01.558Z,1.60
2019-06-08T04:50:20.318Z,2.90
2019-06-08T04:51:02.550Z,1.90
2019-06-08T04:52:01.532Z,1.90
2019-06-08T04:53:01.597Z,2.00
2019-06-08T04:54:01.516Z,2.50
2019-06-08T04:55:01.498Z,2.50
2019-06-08T04:56:01.534Z,1.60
2019-06-08T04:57:01.478Z,4.20
2019-06-08T04:58:01.491Z,2.50
2019-06-08T04:59:01.445Z,2.70
2019-06-08T05:00:11.113Z,4.80
2019-06-08T05:01:02.463Z,1.80
2019-06-08T05:02:01.430Z,1.80
2019-06-08T05:03:01.466Z,1.60
2019-06-08T05:04:01.397Z,1.60
2019-06-08T05:05:01.379Z,2.00
2019-06-08T05:06:01.385Z,2.90
2019-06-08T05:07:01.432Z,2.20
2019-06-08T05:08:01.385Z,1.40
2019-06-08T05:09:01.341Z,2.20
2019-06-08T05:10:01.334Z,2.20
2019-06-08T05:11:01.320Z,2.00
2019-06-08T05:12:01.305Z,2.60
2019-06-08T05:13:01.323Z,2.10
2019-06-08T05:14:01.278Z,1.30
2019-06-08T05:15:01.271Z,2.10
2019-06-08T05:16:01.271Z,1.50
2019-06-08T05:17:01.250Z,1.80
2019-06-08T05:18:01.322Z,2.10
2019-06-08T05:19:01.228Z,3.10
2019-06-08T05:20:01.205Z,1.70
2019-06-08T05:21:01.201Z,1.40
2019-06-08T05:22:01.189Z,1.20
2019-06-08T05:23:01.220Z,2.60
2019-06-08T05:24:01.175Z,2.00
2019-06-08T05:25:01.178Z,2.70
2019-06-08T05:26:01.195Z,2.30
2019-06-08T05:27:01.133Z,2.30
2019-06-08T05:28:01.154Z,1.60
2019-06-08T05:29:01.226Z,1.30
2019-06-08T05:30:08.087Z,1.50
2019-06-08T05:31:02.111Z,1.30
2019-06-08T05:32:01.089Z,2.00
2019-06-08T05:33:01.086Z,2.20
2019-06-08T05:34:01.079Z,1.20
2019-06-08T05:35:01.049Z,2.20
2019-06-08T05:36:01.037Z,2.20
2019-06-08T05:37:01.021Z,2.20
2019-06-08T05:38:01.011Z,2.30
2019-06-08T05:39:01.034Z,1.50
2019-06-08T05:40:00.993Z,1.30
2019-06-08T05:41:00.977Z,3.10
2019-06-08T05:42:00.967Z,2.80
2019-06-08T05:43:00.959Z,3.10
2019-06-08T05:44:00.959Z,2.50
2019-06-08T05:45:00.953Z,2.60
2019-06-08T05:46:00.935Z,4.70
2019-06-08T05:47:00.910Z,2.40
2019-06-08T05:48:00.924Z,3.50
2019-06-08T05:49:00.928Z,1.70
2019-06-08T05:50:00.885Z,1.90
2019-06-08T05:51:04.091Z,2.50
2019-06-08T05:52:00.865Z,2.30
2019-06-08T05:53:00.834Z,1.30
2019-06-08T05:54:02.956Z,1.50
2019-06-08T05:55:00.824Z,2.00
2019-06-08T05:56:00.808Z,4.40
2019-06-08T05:57:00.817Z,4.00
2019-06-08T05:58:00.824Z,2.00
2019-06-08T05:59:00.811Z,1.60
2019-06-08T06:00:08.424Z,2.10
2019-06-08T06:01:01.762Z,2.30
2019-06-08T06:02:00.739Z,2.90
2019-06-08T06:03:00.729Z,2.50
2019-06-08T06:04:00.735Z,2.00
2019-06-08T06:05:00.706Z,2.60
2019-06-08T06:06:00.699Z,3.40
2019-06-08T06:07:00.688Z,2.30
2019-06-08T06:08:00.673Z,1.90
2019-06-08T06:09:00.680Z,3.00
2019-06-08T06:10:00.668Z,2.00
2019-06-08T06:11:00.647Z,2.70
2019-06-08T06:12:00.626Z,2.50
2019-06-08T06:13:00.662Z,3.00
2019-06-08T06:14:00.608Z,2.10
2019-06-08T06:15:00.615Z,1.80
2019-06-08T06:16:00.584Z,3.00
2019-06-08T06:17:00.578Z,2.30
2019-06-08T06:18:00.566Z,2.40
2019-06-08T06:19:00.555Z,4.80
2019-06-08T06:20:00.570Z,1.10
2019-06-08T06:21:10.375Z,2.50
2019-06-08T06:22:01.512Z,2.40
2019-06-08T06:23:00.506Z,2.80
2019-06-08T06:24:00.493Z,2.40
2019-06-08T06:25:00.503Z,1.60
2019-06-08T06:26:00.464Z,1.90
2019-06-08T06:27:00.486Z,1.40
2019-06-08T06:28:00.463Z,3.40
2019-06-08T06:29:00.450Z,1.50
2019-06-08T06:30:00.454Z,3.20
2019-06-08T06:31:00.433Z,1.80
2019-06-08T06:32:00.420Z,1.00
2019-06-08T06:33:00.458Z,2.10
2019-06-08T06:34:00.414Z,2.20
2019-06-08T06:35:00.396Z,5.40
2019-06-08T06:36:00.363Z,6.20
2019-06-08T06:37:00.368Z,3.90
2019-06-08T06:38:00.338Z,3.80
2019-06-08T06:39:00.330Z,4.20
2019-06-08T06:40:00.345Z,5.10
2019-06-08T06:41:00.299Z,5.10
2019-06-08T06:42:00.297Z,6.20
2019-06-08T06:43:00.304Z,4.00
2019-06-08T06:44:00.286Z,3.60
2019-06-08T06:45:00.261Z,2.30
2019-06-08T06:46:00.281Z,6.30
2019-06-08T06:47:00.234Z,2.10
2019-06-08T06:48:00.247Z,3.20
2019-06-08T06:49:00.215Z,2.90
2019-06-08T06:50:00.206Z,4.00
2019-06-08T06:51:00.222Z,1.90
2019-06-08T06:52:00.188Z,1.30
2019-06-08T06:53:00.171Z,3.50
2019-06-08T06:54:00.152Z,3.20
2019-06-08T06:55:00.147Z,3.10
2019-06-08T06:56:00.152Z,2.80
2019-06-08T06:57:00.164Z,1.60
2019-06-08T06:58:00.108Z,2.10
2019-06-08T06:59:00.106Z,4.30
2019-06-08T07:00:00.084Z,2.50
2019-06-08T07:01:00.136Z,1.60
2019-06-08T07:02:00.072Z,6.80
2019-06-08T07:03:00.067Z,1.80
2019-06-08T07:04:00.045Z,4.20
2019-06-08T07:05:00.046Z,2.90
2019-06-08T07:06:00.039Z,2.20
2019-06-08T07:07:00.018Z,3.10
2019-06-08T07:07:59.998Z,2.20
2019-06-08T07:08:59.989Z,2.00
2019-06-08T07:09:59.990Z,1.80
2019-06-08T07:10:59.993Z,3.80
2019-06-08T07:11:59.953Z,10.50
2019-06-08T07:12:59.955Z,6.70
2019-06-08T07:13:59.937Z,3.80
2019-06-08T07:14:59.924Z,6.70
2019-06-08T07:16:16.885Z,5.00
2019-06-08T07:17:00.899Z,4.10
2019-06-08T07:17:59.888Z,3.60
2019-06-08T07:18:59.882Z,2.50
2019-06-08T07:19:59.870Z,0.80
2019-06-08T07:20:59.889Z,2.80
2019-06-08T07:21:59.847Z,2.80
2019-06-08T07:22:59.827Z,4.50
2019-06-08T07:23:59.819Z,3.70
2019-06-08T07:24:59.797Z,1.60
2019-06-08T07:25:59.821Z,2.20
2019-06-08T07:26:59.793Z,1.20
2019-06-08T07:27:59.770Z,4.20
2019-06-08T07:28:59.761Z,5.50
2019-06-08T07:29:59.763Z,3.10
2019-06-08T07:30:59.775Z,4.10
2019-06-08T07:31:59.724Z,2.40
2019-06-08T07:32:59.756Z,2.60
2019-06-08T07:33:59.996Z,2.20
2019-06-08T07:34:59.700Z,3.10
2019-06-08T07:35:59.904Z,4.40
2019-06-08T07:36:59.693Z,3.40
2019-06-08T07:37:59.872Z,2.60
2019-06-08T07:38:59.724Z,2.70
2019-06-08T07:40:00.151Z,1.70
2019-06-08T07:41:01.654Z,2.60
2019-06-08T07:42:00.010Z,3.30
2019-06-08T07:43:00.429Z,4.00
2019-06-08T07:43:59.593Z,1.90
2019-06-08T07:45:00.401Z,6.40
2019-06-08T07:45:59.579Z,2.10
2019-06-08T07:47:00.103Z,1.80
2019-06-08T07:48:00.587Z,1.60
2019-06-08T07:48:59.548Z,2.10
2019-06-08T07:49:59.638Z,2.70
2019-06-08T07:50:59.513Z,2.50
2019-06-08T07:52:09.743Z,3.30
2019-06-08T07:53:00.496Z,5.10
2019-06-08T07:53:59.920Z,1.50
2019-06-08T07:54:59.485Z,2.60
2019-06-08T07:55:59.851Z,2.80
2019-06-08T07:56:59.478Z,1.80
2019-06-08T07:58:00.358Z,3.30
2019-06-08T07:58:59.426Z,1.20
2019-06-08T08:00:00.187Z,3.50
2019-06-08T08:01:07.520Z,1.50
2019-06-08T08:02:00.422Z,2.60
2019-06-08T08:02:59.388Z,2.10
2019-06-08T08:03:59.377Z,1.50
2019-06-08T08:04:59.367Z,2.70
2019-06-08T08:06:00.008Z,2.30
2019-06-08T08:06:59.363Z,2.70
2019-06-08T08:07:59.324Z,2.40
2019-06-08T08:08:59.326Z,1.60
2019-06-08T08:09:59.320Z,2.30
2019-06-08T08:11:00.043Z,3.10
2019-06-08T08:11:59.681Z,1.80
2019-06-08T08:12:59.285Z,3.90
2019-06-08T08:13:59.283Z,2.90
2019-06-08T08:14:59.739Z,5.00
2019-06-08T08:16:00.719Z,4.00
2019-06-08T08:16:59.312Z,3.50
2019-06-08T08:17:59.646Z,3.10
2019-06-08T08:18:59.726Z,3.10
2019-06-08T08:19:59.415Z,2.40
2019-06-08T08:21:09.272Z,3.90
2019-06-08T08:22:10.710Z,5.50
2019-06-08T08:23:05.558Z,3.00
2019-06-08T08:24:01.582Z,2.90
2019-06-08T08:25:04.216Z,3.00
2019-06-08T08:26:01.787Z,3.90
2019-06-08T08:27:02.062Z,3.50
2019-06-08T08:28:00.667Z,4.80
2019-06-08T08:29:02.539Z,1.90
2019-06-08T08:30:01.713Z,3.30
2019-06-08T08:31:01.693Z,3.20
2019-06-08T08:32:01.771Z,4.60
2019-06-08T08:33:01.659Z,3.80
2019-06-08T08:34:05.322Z,3.30
2019-06-08T08:35:02.650Z,3.70
2019-06-08T08:36:01.724Z,3.10
2019-06-08T08:37:06.012Z,2.30
2019-06-08T08:38:03.901Z,2.30
2019-06-08T08:39:01.012Z,5.80
2019-06-08T08:40:01.363Z,1.50
2019-06-08T08:41:06.228Z,3.00
2019-06-08T08:42:04.790Z,2.20
2019-06-08T08:43:01.542Z,4.70
2019-06-08T08:44:04.203Z,3.10
2019-06-08T08:45:05.023Z,2.80
2019-06-08T08:46:01.822Z,2.10
2019-06-08T08:47:01.374Z,1.60
2019-06-08T08:48:14.407Z,1.50
2019-06-08T08:49:08.925Z,2.10
2019-06-08T08:50:01.868Z,1.50
2019-06-08T08:51:01.435Z,7.10
2019-06-08T08:52:00.221Z,2.40
2019-06-08T08:53:00.625Z,3.30
2019-06-08T08:54:03.938Z,4.40
2019-06-08T08:55:00.926Z,3.30
2019-06-08T08:56:02.097Z,3.30
2019-06-08T08:57:03.384Z,2.60
2019-06-08T08:58:01.777Z,4.50
2019-06-08T08:59:00.907Z,3.00
2019-06-08T09:00:03.494Z,2.90
2019-06-08T09:01:02.107Z,3.20
2019-06-08T09:02:01.053Z,2.30
2019-06-08T09:03:13.142Z,5.90
2019-06-08T09:04:03.295Z,2.50
2019-06-08T09:05:03.066Z,5.40
2019-06-08T09:06:01.510Z,4.10
2019-06-08T09:07:05.227Z,2.40
2019-06-08T09:08:02.125Z,3.40
2019-06-08T09:09:01.666Z,2.20
2019-06-08T09:10:01.823Z,2.30
2019-06-08T09:11:01.733Z,3.40
2019-06-08T09:12:02.287Z,4.40
2019-06-08T09:13:02.934Z,3.90
2019-06-08T09:14:05.196Z,2.70
2019-06-08T09:15:01.852Z,2.70
2019-06-08T09:16:00.867Z,1.70
2019-06-08T09:17:01.741Z,4.20
2019-06-08T09:18:00.966Z,3.60
2019-06-08T09:19:02.374Z,5.80
2019-06-08T09:20:03.277Z,3.30
2019-06-08T09:21:02.031Z,2.90
2019-06-08T09:22:01.202Z,3.60
2019-06-08T09:23:06.430Z,6.80
2019-06-08T09:24:03.456Z,2.30
2019-06-08T09:25:01.269Z,3.50
2019-06-08T09:26:05.782Z,3.70
2019-06-08T09:27:02.401Z,4.20
2019-06-08T09:28:01.257Z,1.70
2019-06-08T09:28:58.496Z,2.20
2019-06-08T09:30:00.736Z,2.00
2019-06-08T09:31:00.657Z,4.40
2019-06-08T09:32:00.412Z,1.60
2019-06-08T09:33:00.644Z,2.50
2019-06-08T09:34:08.529Z,1.20
2019-06-08T09:35:02.703Z,3.60
2019-06-08T09:36:02.407Z,1.70
2019-06-08T09:37:00.112Z,2.90
2019-06-08T09:38:01.083Z,3.20
2019-06-08T09:39:00.696Z,2.40
2019-06-08T09:39:59.014Z,2.90
2019-06-08T09:41:01.256Z,4.50
2019-06-08T09:42:01.924Z,2.20
2019-06-08T09:43:05.471Z,2.50
2019-06-08T09:44:02.190Z,3.20
2019-06-08T09:45:02.967Z,2.00
2019-06-08T09:46:00.561Z,5.00
2019-06-08T09:47:02.893Z,4.50
2019-06-08T09:48:01.602Z,2.50
2019-06-08T09:49:03.684Z,3.20
2019-06-08T09:50:03.270Z,4.20
2019-06-08T09:51:01.712Z,1.80
2019-06-08T09:52:00.343Z,1.60
2019-06-08T09:53:14.763Z,3.80
2019-06-08T09:54:02.647Z,2.80
2019-06-08T09:55:02.302Z,2.50
2019-06-08T09:56:02.351Z,1.30
2019-06-08T09:57:02.091Z,4.30
2019-06-08T09:58:03.955Z,2.20
2019-06-08T09:59:03.559Z,4.50
2019-06-08T10:00:02.195Z,3.80
2019-06-08T10:01:01.209Z,2.70
2019-06-08T10:02:05.151Z,2.90
2019-06-08T10:03:02.449Z,1.50
2019-06-08T10:04:00.820Z,1.30
2019-06-08T10:05:00.502Z,4.00
2019-06-08T10:06:01.544Z,4.30
2019-06-08T10:07:00.558Z,3.80
2019-06-08T10:08:00.473Z,1.70
2019-06-08T10:08:58.513Z,2.90
2019-06-08T10:10:00.361Z,3.30
2019-06-08T10:11:01.387Z,1.90
2019-06-08T10:12:01.298Z,4.80
2019-06-08T10:13:01.319Z,6.00
2019-06-08T10:14:02.653Z,3.70
2019-06-08T10:14:58.790Z,3.50
2019-06-08T10:16:01.939Z,3.70
2019-06-08T10:17:01.189Z,1.50
2019-06-08T10:17:58.924Z,3.40
2019-06-08T10:19:02.304Z,1.70
2019-06-08T10:20:00.632Z,3.10
2019-06-08T10:21:00.647Z,4.10
2019-06-08T10:21:58.838Z,2.50
2019-06-08T10:23:01.167Z,3.10
2019-06-08T10:24:01.003Z,1.60
2019-06-08T10:25:02.160Z,3.00
2019-06-08T10:26:01.377Z,5.20
2019-06-08T10:26:59.272Z,2.00
2019-06-08T10:28:02.818Z,5.10
2019-06-08T10:29:01.404Z,2.70
2019-06-08T10:29:59.984Z,1.90
2019-06-08T10:30:59.641Z,2.70
2019-06-08T10:31:57.720Z,3.70
2019-06-08T10:33:00.455Z,2.30
2019-06-08T10:34:01.528Z,2.40
2019-06-08T10:35:00.326Z,3.50
2019-06-08T10:36:01.508Z,2.50
2019-06-08T10:37:03.430Z,5.40
2019-06-08T10:38:02.610Z,2.30
2019-06-08T10:39:01.861Z,2.30
2019-06-08T10:40:01.921Z,2.20
2019-06-08T10:41:01.243Z,3.20
2019-06-08T10:42:01.109Z,2.70
2019-06-08T10:42:59.827Z,2.30
2019-06-08T10:43:59.109Z,2.70
2019-06-08T10:45:02.740Z,2.10
2019-06-08T10:46:05.145Z,4.10
2019-06-08T10:47:01.609Z,3.10
2019-06-08T10:47:59.387Z,1.80
2019-06-08T10:48:57.537Z,2.50
2019-06-08T10:50:01.638Z,1.40
2019-06-08T10:51:01.357Z,3.70
2019-06-08T10:52:01.603Z,2.00
2019-06-08T10:53:02.130Z,2.50
2019-06-08T10:53:59.860Z,4.20
2019-06-08T10:54:59.782Z,3.40
2019-06-08T10:55:58.233Z,4.00
2019-06-08T10:56:59.791Z,2.10
2019-06-08T10:57:58.435Z,2.30
2019-06-08T10:59:00.239Z,3.10
2019-06-08T10:59:57.925Z,4.70
2019-06-08T11:01:00.168Z,1.90
2019-06-08T11:02:00.955Z,3.40
2019-06-08T11:03:01.315Z,3.10
2019-06-08T11:03:58.413Z,4.10
2019-06-08T11:04:58.890Z,2.40
2019-06-08T11:06:00.731Z,1.90
2019-06-08T11:07:01.044Z,1.60
2019-06-08T11:07:59.325Z,1.90
2019-06-08T11:09:00.373Z,2.20
2019-06-08T11:09:58.707Z,1.80
2019-06-08T11:10:57.872Z,3.60
2019-06-08T11:11:58.338Z,2.60
2019-06-08T11:12:58.218Z,2.80
2019-06-08T11:14:00.051Z,3.00
2019-06-08T11:14:58.407Z,4.70
2019-06-08T11:15:58.645Z,2.60
2019-06-08T11:16:58.427Z,3.40
2019-06-08T11:18:01.328Z,2.40
2019-06-08T11:18:59.047Z,1.80
2019-06-08T11:20:00.489Z,4.50
2019-06-08T11:20:59.916Z,3.00
2019-06-08T11:21:58.053Z,3.80
2019-06-08T11:22:58.345Z,1.50
2019-06-08T11:24:07.343Z,5.50
2019-06-08T11:24:58.875Z,2.80
2019-06-08T11:25:59.517Z,1.70
2019-06-08T11:26:59.691Z,5.40
2019-06-08T11:27:58.674Z,4.00
2019-06-08T11:28:58.664Z,2.30
2019-06-08T11:29:57.558Z,3.30
2019-06-08T11:30:57.071Z,2.80
2019-06-08T11:31:58.637Z,3.40
2019-06-08T11:32:57.673Z,3.90
2019-06-08T11:33:58.888Z,3.20
2019-06-08T11:34:57.015Z,3.60
2019-06-08T11:35:58.146Z,3.70
2019-06-08T11:36:59.643Z,2.40
2019-06-08T11:37:58.524Z,2.70
2019-06-08T11:38:59.182Z,3.10
2019-06-08T11:39:57.662Z,2.70
2019-06-08T11:40:57.485Z,3.70
2019-06-08T11:41:58.756Z,2.80
2019-06-08T11:42:58.580Z,1.50
2019-06-08T11:43:59.577Z,5.50
2019-06-08T11:44:58.656Z,2.50
2019-06-08T11:45:58.404Z,1.90
2019-06-08T11:46:57.524Z,2.30
2019-06-08T11:47:58.376Z,2.10
2019-06-08T11:48:57.682Z,2.50
2019-06-08T11:49:57.690Z,5.10
2019-06-08T11:50:58.509Z,2.90
2019-06-08T11:51:58.352Z,8.10
2019-06-08T11:53:00.098Z,4.40
2019-06-08T11:53:59.263Z,2.30
2019-06-08T11:54:57.373Z,6.20
2019-06-08T11:55:58.595Z,4.90
2019-06-08T11:56:57.609Z,5.30
2019-06-08T11:57:58.583Z,6.10
2019-06-08T11:58:57.917Z,3.50
2019-06-08T11:59:58.470Z,5.40
2019-06-08T12:01:00.674Z,4.20
2019-06-08T12:01:58.638Z,7.10
2019-06-08T12:02:58.095Z,3.10
2019-06-08T12:03:57.982Z,2.40
2019-06-08T12:04:57.277Z,4.60
2019-06-08T12:05:58.310Z,5.30
2019-06-08T12:06:58.427Z,3.10
2019-06-08T12:07:57.820Z,4.50
2019-06-08T12:08:57.368Z,4.60
2019-06-08T12:09:58.352Z,4.10
2019-06-08T12:11:01.275Z,2.30
2019-06-08T12:11:58.110Z,3.10
2019-06-08T12:12:57.433Z,3.50
2019-06-08T12:13:58.474Z,2.20
2019-06-08T12:14:58.311Z,2.60
2019-06-08T12:15:58.752Z,6.20
2019-06-08T12:16:58.100Z,3.20
2019-06-08T12:17:58.648Z,4.60
2019-06-08T12:18:58.601Z,6.20
2019-06-08T12:19:57.725Z,5.00
2019-06-08T12:20:58.350Z,4.30
2019-06-08T12:21:58.012Z,9.50
2019-06-08T12:22:56.471Z,4.60
2019-06-08T12:23:56.449Z,2.20
2019-06-08T12:24:56.448Z,4.20
2019-06-08T12:25:56.504Z,2.70
2019-06-08T12:27:05.295Z,5.00
2019-06-08T12:27:58.523Z,3.70
2019-06-08T12:28:57.978Z,4.00
2019-06-08T12:29:58.605Z,3.40
2019-06-08T12:30:56.403Z,5.70
2019-06-08T12:31:58.403Z,5.90
2019-06-08T12:32:58.135Z,3.10
2019-06-08T12:33:58.619Z,4.50
2019-06-08T12:34:59.769Z,4.10
2019-06-08T12:35:57.867Z,3.90
2019-06-08T12:36:58.264Z,7.60
2019-06-08T12:37:58.112Z,4.40
2019-06-08T12:38:58.512Z,3.90
2019-06-08T12:39:57.943Z,5.20
2019-06-08T12:40:58.507Z,2.30
2019-06-08T12:41:58.269Z,5.60
2019-06-08T12:42:59.489Z,5.20
2019-06-08T12:43:58.077Z,5.50
2019-06-08T12:44:58.633Z,2.70
2019-06-08T12:45:58.039Z,4.50
2019-06-08T12:46:58.409Z,5.00
2019-06-08T12:47:56.189Z,2.90
2019-06-08T12:48:58.051Z,4.80
2019-06-08T12:49:58.295Z,2.50
2019-06-08T12:50:56.195Z,7.70
2019-06-08T12:51:58.108Z,4.30
2019-06-08T12:52:58.303Z,6.50
2019-06-08T12:53:59.854Z,4.50
2019-06-08T12:55:05.535Z,7.00
2019-06-08T12:55:57.910Z,3.10
2019-06-08T12:56:58.022Z,2.70
2019-06-08T12:57:58.113Z,3.90
2019-06-08T12:58:57.940Z,3.80
2019-06-08T12:59:59.805Z,4.60
2019-06-08T13:00:57.988Z,5.10
2019-06-08T13:01:58.536Z,5.40
2019-06-08T13:02:57.996Z,3.50
2019-06-08T13:03:58.098Z,2.30
2019-06-08T13:04:56.004Z,5.30
2019-06-08T13:05:57.558Z,4.20
2019-06-08T13:06:58.351Z,2.20
2019-06-08T13:07:55.979Z,3.70
2019-06-08T13:08:57.769Z,4.00
2019-06-08T13:09:58.175Z,3.10
2019-06-08T13:10:57.912Z,5.40
2019-06-08T13:11:57.186Z,4.40
2019-06-08T13:12:58.195Z,3.80
2019-06-08T13:13:55.908Z,4.20